Time;durP1;ratioP1;P1;durP2;ratioP2;P2;SDS_P1;SDS_P2;PMS_P1;PMS_P2;Temp;Humidity;BMP_temperature;BMP_pressure;BME280_temperature;BME280_humidity;BME280_pressure;Samples;Min_cycle;Max_cycle;Signal;HPM_P1;HPM_P2
2021/08/11 00:00:25;;;;;;;8.15;6.00;;;14.90;97.30;;;;;;5049007;28;20021;-70
2021/08/11 00:02:50;;;;;;;8.70;5.53;;;14.80;97.40;;;;;;5048144;28;20017;-71
2021/08/11 00:05:16;;;;;;;9.82;5.47;;;14.80;97.40;;;;;;5048971;28;20051;-71
2021/08/11 00:07:41;;;;;;;7.05;4.82;;;14.80;97.40;;;;;;5050655;28;20401;-72
2021/08/11 00:10:08;;;;;;;5.32;4.35;;;14.80;97.40;;;;;;5050249;28;20037;-72
2021/08/11 00:12:34;;;;;;;7.07;5.03;;;14.80;97.40;;;;;;5049817;28;20021;-72
2021/08/11 00:15:00;;;;;;;8.77;5.63;;;14.70;97.40;;;;;;5049488;28;20036;-72
2021/08/11 00:17:25;;;;;;;6.82;5.25;;;14.70;97.50;;;;;;5050083;28;20028;-72
2021/08/11 00:19:51;;;;;;;10.18;5.47;;;14.70;97.50;;;;;;5049514;28;20106;-72
2021/08/11 00:22:17;;;;;;;6.63;5.68;;;14.70;97.60;;;;;;5048953;28;20567;-72
2021/08/11 00:24:42;;;;;;;6.35;5.15;;;14.70;97.60;;;;;;5049116;28;20036;-72
2021/08/11 00:27:08;;;;;;;8.55;5.15;;;14.70;97.60;;;;;;5050192;28;20024;-72
2021/08/11 00:29:33;;;;;;;;;;;14.70;97.70;;;;;;5050588;28;20029;-72
2021/08/11 00:31:59;;;;;;;8.32;4.93;;;14.60;97.70;;;;;;5050013;28;19908;-75
2021/08/11 00:34:24;;;;;;;7.68;4.95;;;14.70;97.70;;;;;;5048125;28;20068;-75
2021/08/11 00:36:50;;;;;;;7.65;5.35;;;14.60;97.70;;;;;;5048481;28;20029;-75
2021/08/11 00:39:15;;;;;;;6.35;5.38;;;14.70;97.80;;;;;;5049634;28;20047;-75
2021/08/11 00:41:44;;;;;;;;;;;14.60;97.80;;;;;;5049696;28;20036;-75
2021/08/11 00:44:11;;;;;;;7.75;5.65;;;14.60;97.80;;;;;;5048039;28;19936;-75
2021/08/11 00:46:43;;;;;;;6.38;5.20;;;14.60;97.80;;;;;;5049499;28;20028;-75
2021/08/11 00:49:12;;;;;;;7.05;4.68;;;14.60;97.80;;;;;;5049146;28;20021;-75
2021/08/11 00:51:39;;;;;;;5.88;5.38;;;14.60;97.80;;;;;;5049705;28;20395;-75
2021/08/11 00:54:05;;;;;;;7.13;5.72;;;14.60;97.80;;;;;;5048415;28;21540;-71
2021/08/11 00:56:33;;;;;;;5.68;4.90;;;14.60;97.90;;;;;;5049394;28;20102;-71
2021/08/11 00:58:59;;;;;;;6.05;4.97;;;14.60;97.90;;;;;;5047491;28;20075;-71
2021/08/11 01:01:32;;;;;;;6.35;5.00;;;14.60;97.90;;;;;;5049690;28;20027;-71
2021/08/11 01:04:00;;;;;;;5.38;4.78;;;14.50;97.90;;;;;;5046476;28;20021;-71
2021/08/11 01:06:26;;;;;;;10.52;8.60;;;14.60;97.90;;;;;;5049435;28;20048;-68
2021/08/11 01:08:54;;;;;;;8.88;7.15;;;14.50;97.80;;;;;;5048750;28;20032;-71
2021/08/11 01:11:21;;;;;;;13.85;8.05;;;14.60;97.80;;;;;;5048550;28;20557;-71
2021/08/11 01:13:47;;;;;;;13.75;11.50;;;14.50;97.70;;;;;;5047590;28;20032;-71
2021/08/11 01:16:12;;;;;;;9.50;7.18;;;14.50;97.80;;;;;;5047380;28;20029;-71
2021/08/11 01:18:38;;;;;;;;;;;14.50;97.80;;;;;;5047418;28;20033;-71
2021/08/11 01:21:11;;;;;;;8.52;6.55;;;14.50;97.90;;;;;;5051222;28;19908;-71
2021/08/11 01:23:45;;;;;;;8.93;6.82;;;14.40;97.90;;;;;;5053381;28;20025;-71
2021/08/11 01:26:21;;;;;;;11.02;7.85;;;14.40;97.90;;;;;;5052603;28;20446;-71
2021/08/11 01:29:00;;;;;;;9.68;7.18;;;14.40;98.00;;;;;;5051142;28;20025;-71
2021/08/11 01:31:47;;;;;;;8.25;5.68;;;14.30;98.00;;;;;;5051316;28;20043;-71
2021/08/11 01:34:27;;;;;;;9.88;6.55;;;14.30;98.00;;;;;;5051674;28;20048;-71
2021/08/11 01:36:55;;;;;;;13.65;6.35;;;14.30;98.00;;;;;;5053196;28;20348;-71
2021/08/11 01:39:27;;;;;;;9.82;7.13;;;14.30;98.30;;;;;;5051596;28;20255;-72
2021/08/11 01:42:16;;;;;;;7.60;6.32;;;14.30;98.10;;;;;;5042395;28;20029;-72
2021/08/11 01:44:56;;;;;;;12.73;7.00;;;14.30;98.10;;;;;;5051743;28;20032;-72
2021/08/11 01:47:31;;;;;;;8.32;6.35;;;14.30;98.10;;;;;;5052706;28;20036;-71
2021/08/11 01:49:59;;;;;;;7.90;5.68;;;14.20;98.00;;;;;;5051591;28;20476;-71
2021/08/11 01:52:25;;;;;;;14.38;6.55;;;14.20;98.10;;;;;;5052475;28;20033;-71
2021/08/11 01:54:51;;;;;;;8.00;5.68;;;14.20;98.10;;;;;;5050566;28;20518;-71
2021/08/11 01:57:18;;;;;;;11.55;6.93;;;14.20;98.10;;;;;;5051643;28;20040;-72
2021/08/11 01:59:45;;;;;;;7.93;5.38;;;14.20;98.10;;;;;;5052806;28;20496;-72
2021/08/11 02:02:13;;;;;;;8.55;5.13;;;14.20;98.10;;;;;;5052496;28;20033;-72
2021/08/11 02:04:39;;;;;;;8.48;6.07;;;14.20;98.20;;;;;;5051975;28;20435;-68
2021/08/11 02:07:05;;;;;;;6.80;5.22;;;14.20;98.20;;;;;;5052318;28;20048;-68
2021/08/11 02:09:31;;;;;;;;;;;14.20;98.20;;;;;;5053277;28;20025;-68
2021/08/11 02:11:57;;;;;;;8.02;5.43;;;14.10;98.20;;;;;;5050798;28;20019;-68
2021/08/11 02:14:23;;;;;;;8.60;5.75;;;14.10;98.20;;;;;;5058518;28;20108;-68
2021/08/11 02:16:49;;;;;;;5.82;5.15;;;14.10;98.30;;;;;;5051605;28;20055;-68
2021/08/11 02:19:15;;;;;;;;;;;14.10;98.30;;;;;;5052643;28;20041;-68
2021/08/11 02:21:40;;;;;;;8.68;5.35;;;14.10;98.20;;;;;;5052089;28;19955;-69
2021/08/11 02:24:08;;;;;;;7.20;5.53;;;14.10;98.20;;;;;;5049557;28;20504;-68
2021/08/11 02:26:45;;;;;;;6.60;4.97;;;14.10;98.30;;;;;;5051124;28;20029;-69
2021/08/11 02:29:35;;;;;;;6.20;4.68;;;14.10;98.20;;;;;;5052078;28;20028;-71
2021/08/11 02:32:08;;;;;;;6.43;5.15;;;14.10;98.20;;;;;;5049347;28;20037;-71
2021/08/11 02:35:01;;;;;;;5.45;4.10;;;14.00;98.20;;;;;;5049690;28;20033;-71
2021/08/11 02:37:34;;;;;;;6.10;4.65;;;14.00;98.20;;;;;;5051094;28;20033;-71
2021/08/11 02:40:14;;;;;;;10.07;4.90;;;14.00;98.20;;;;;;5051348;28;20111;-71
2021/08/11 02:42:55;;;;;;;7.25;5.78;;;14.00;98.20;;;;;;5051349;28;20025;-71
2021/08/11 02:45:23;;;;;;;7.82;5.07;;;14.00;98.20;;;;;;5049728;28;20029;-71
2021/08/11 02:47:49;;;;;;;6.00;5.20;;;14.00;98.20;;;;;;5050661;28;20033;-71
2021/08/11 02:50:17;;;;;;;8.48;5.45;;;13.90;98.20;;;;;;5050484;28;20037;-71
2021/08/11 02:52:44;;;;;;;7.53;4.93;;;13.90;98.20;;;;;;5051047;28;20037;-71
2021/08/11 02:55:10;;;;;;;5.32;4.80;;;13.90;98.20;;;;;;5047646;28;20029;-71
2021/08/11 02:57:36;;;;;;;6.30;5.00;;;13.90;98.10;;;;;;5050651;28;20029;-71
2021/08/11 03:00:03;;;;;;;7.95;5.68;;;13.90;98.10;;;;;;5051531;28;20115;-71
2021/08/11 03:02:29;;;;;;;7.80;4.95;;;13.90;98.20;;;;;;5050831;28;20033;-71
2021/08/11 03:04:55;;;;;;;;;;;13.90;98.20;;;;;;5049632;28;20071;-71
2021/08/11 03:07:21;;;;;;;5.90;4.43;;;13.90;98.20;;;;;;5049834;28;19905;-70
2021/08/11 03:09:46;;;;;;;;;;;13.80;98.20;;;;;;5051069;28;20025;-71
2021/08/11 03:12:12;;;;;;;7.18;5.53;;;13.80;98.10;;;;;;5051564;28;19952;-71
2021/08/11 03:14:40;;;;;;;5.75;5.15;;;13.80;98.10;;;;;;5047955;28;20142;-71
2021/08/11 03:17:12;;;;;;;6.32;4.82;;;13.80;98.10;;;;;;5050527;28;20028;-71
2021/08/11 03:19:38;;;;;;;8.85;5.65;;;13.80;98.10;;;;;;5050560;28;20045;-71
2021/08/11 03:22:06;;;;;;;8.00;5.18;;;13.80;98.10;;;;;;5049608;28;20071;-71
2021/08/11 03:24:32;;;;;;;11.05;5.70;;;13.80;98.20;;;;;;5049895;28;20124;-71
2021/08/11 03:26:57;;;;;;;;;;;13.70;98.20;;;;;;5051572;28;20112;-71
2021/08/11 03:29:23;;;;;;;10.00;5.55;;;13.70;98.20;;;;;;5050980;28;20371;-71
2021/08/11 03:31:49;;;;;;;6.28;4.60;;;13.70;98.20;;;;;;5051095;28;20104;-71
2021/08/11 03:34:14;;;;;;;;;;;13.70;98.20;;;;;;5050482;28;20115;-71
2021/08/11 03:36:40;;;;;;;7.60;5.60;;;13.70;98.20;;;;;;5050100;28;20279;-75
2021/08/11 03:39:05;;;;;;;;;;;13.70;98.20;;;;;;5051201;28;20476;-75
2021/08/11 03:41:30;;;;;;;;;;;13.60;98.20;;;;;;5051302;28;19944;-75
2021/08/11 03:43:56;;;;;;;;;;;13.70;98.30;;;;;;5049192;28;19908;-75
2021/08/11 03:46:21;;;;;;;;;;;13.70;98.20;;;;;;5050597;28;20398;-75
2021/08/11 03:48:47;;;;;;;;;;;13.70;98.10;;;;;;5051164;28;19911;-71
2021/08/11 03:51:12;;;;;;;;;;;13.60;98.10;;;;;;5051099;28;19905;-71
2021/08/11 03:53:39;;;;;;;;;;;13.60;98.10;;;;;;5050699;28;19919;-71
2021/08/11 03:56:05;;;;;;;;;;;13.60;98.20;;;;;;5048210;28;19947;-71
2021/08/11 03:58:31;;;;;;;;;;;13.50;98.20;;;;;;5049649;28;20477;-71
2021/08/11 04:00:56;;;;;;;;;;;13.50;98.20;;;;;;5049681;28;20018;-71
2021/08/11 04:03:22;;;;;;;;;;;13.50;98.30;;;;;;5050572;28;19909;-71
2021/08/11 04:05:47;;;;;;;;;;;13.50;98.30;;;;;;5049960;28;20287;-71
2021/08/11 04:08:12;;;;;;;;;;;13.50;98.30;;;;;;5050315;28;19909;-71
2021/08/11 04:10:38;;;;;;;;;;;13.50;98.30;;;;;;5049778;28;19920;-71
2021/08/11 04:13:03;;;;;;;;;;;13.50;98.30;;;;;;5050676;28;20003;-75
2021/08/11 04:15:29;;;;;;;;;;;13.60;98.30;;;;;;5048061;28;19916;-75
2021/08/11 04:17:54;;;;;;;;;;;13.70;98.30;;;;;;5051230;28;19913;-75
2021/08/11 04:20:20;;;;;;;;;;;13.70;98.20;;;;;;5050536;28;19911;-75
2021/08/11 04:22:46;;;;;;;;;;;13.90;98.10;;;;;;5048791;28;19915;-75
2021/08/11 04:25:11;;;;;;;;;;;14.00;98.00;;;;;;5049535;28;19913;-75
2021/08/11 04:27:36;;;;;;;;;;;14.10;97.90;;;;;;5050330;28;20284;-72
2021/08/11 04:30:02;;;;;;;;;;;14.30;97.90;;;;;;5050783;28;19912;-69
2021/08/11 04:32:28;;;;;;;;;;;14.40;98.00;;;;;;5048866;28;20280;-69
2021/08/11 04:34:54;;;;;;;;;;;14.60;97.60;;;;;;5048019;28;19966;-68
2021/08/11 04:37:19;;;;;;;;;;;14.80;97.40;;;;;;5047882;28;20303;-71
2021/08/11 04:39:45;;;;;;;;;;;14.90;97.50;;;;;;5050538;28;19905;-71
2021/08/11 04:42:10;;;;;;;;;;;15.20;97.30;;;;;;5050076;28;19915;-72
2021/08/11 04:44:35;;;;;;;;;;;15.40;97.00;;;;;;5048880;28;19912;-72
2021/08/11 04:47:01;;;;;;;;;;;15.60;96.80;;;;;;5050465;28;20230;-72
2021/08/11 04:49:26;;;;;;;;;;;15.80;96.40;;;;;;5050005;28;19912;-72
2021/08/11 04:51:52;;;;;;;;;;;15.90;96.10;;;;;;5056651;28;19905;-69
2021/08/11 04:54:17;;;;;;;;;;;16.00;95.80;;;;;;5046259;28;19967;-69
2021/08/11 04:56:43;;;;;;;;;;;16.30;95.80;;;;;;5054112;28;19960;-69
2021/08/11 04:59:08;;;;;;;;;;;16.40;95.30;;;;;;5052753;28;19960;-69
2021/08/11 05:01:34;;;;;;;;;;;16.60;94.90;;;;;;5053033;28;20003;-69
2021/08/11 05:03:59;;;;;;;;;;;16.70;94.60;;;;;;5050440;28;20313;-68
2021/08/11 05:06:24;;;;;;;;;;;16.90;94.40;;;;;;5051793;28;19944;-69
2021/08/11 05:08:50;;;;;;;;;;;17.00;93.90;;;;;;5053809;28;20069;-69
2021/08/11 05:11:15;;;;;;;;;;;17.10;93.80;;;;;;5052838;28;19947;-69
2021/08/11 05:13:41;;;;;;;;;;;17.30;93.60;;;;;;5052137;28;19912;-71
2021/08/11 05:16:06;;;;;;;;;;;17.60;93.50;;;;;;5052967;28;19913;-72
2021/08/11 05:18:33;;;;;;;;;;;17.70;93.20;;;;;;5053419;28;19913;-72
2021/08/11 05:20:58;;;;;;;;;;;17.90;92.70;;;;;;5054194;28;19931;-69
2021/08/11 05:23:24;;;;;;;;;;;18.00;92.50;;;;;;5059920;28;20371;-75
2021/08/11 05:25:50;;;;;;;;;;;18.10;92.30;;;;;;5052954;28;19919;-75
2021/08/11 05:28:15;;;;;;;;;;;18.20;92.20;;;;;;5053803;28;20383;-76
2021/08/11 05:30:41;;;;;;;;;;;18.40;92.20;;;;;;5053665;28;20329;-73
2021/08/11 05:33:06;;;;;;;;;;;18.50;91.40;;;;;;5053091;28;19912;-72
2021/08/11 05:35:31;;;;;;;;;;;18.50;91.40;;;;;;5051855;28;20291;-72
2021/08/11 05:37:57;;;;;;;;;;;18.60;91.40;;;;;;5053989;28;19954;-72
2021/08/11 05:40:23;;;;;;;;;;;18.60;91.30;;;;;;5053478;28;19959;-72
2021/08/11 05:42:48;;;;;;;;;;;18.60;91.30;;;;;;5053832;28;19905;-72
2021/08/11 05:45:14;;;;;;;;;;;18.50;91.50;;;;;;5051692;28;20352;-72
2021/08/11 05:47:40;;;;;;;;;;;18.50;91.70;;;;;;5053787;28;20364;-72
2021/08/11 05:50:06;;;;;;;;;;;18.50;91.70;;;;;;5053470;28;19909;-72
2021/08/11 05:52:31;;;;;;;;;;;18.40;91.70;;;;;;5051765;28;20343;-72
2021/08/11 05:54:57;;;;;;;;;;;18.30;91.60;;;;;;5052223;28;20003;-72
2021/08/11 05:57:22;;;;;;;;;;;18.20;91.90;;;;;;5053406;28;20003;-72
2021/08/11 05:59:48;;;;;;;;;;;18.10;91.90;;;;;;5052962;28;19916;-72
2021/08/11 06:02:13;;;;;;;;;;;18.00;92.00;;;;;;5052509;28;19908;-72
2021/08/11 06:04:39;;;;;;;;;;;18.00;92.20;;;;;;5052223;28;20275;-72
2021/08/11 06:07:04;;;;;;;;;;;18.00;92.30;;;;;;5052770;28;19948;-69
2021/08/11 06:09:30;;;;;;;;;;;18.00;92.40;;;;;;5051793;28;19964;-69
2021/08/11 06:11:55;;;;;;;;;;;18.00;92.50;;;;;;5052944;28;19908;-69
2021/08/11 06:14:21;;;;;;;;;;;18.10;92.40;;;;;;5050775;28;19923;-69
2021/08/11 06:16:46;;;;;;;;;;;18.10;92.30;;;;;;5052816;28;19951;-69
2021/08/11 06:19:12;;;;;;;;;;;18.20;92.30;;;;;;5051880;28;19924;-69
2021/08/11 06:21:37;;;;;;;;;;;18.20;92.30;;;;;;5042997;28;19909;-69
2021/08/11 06:24:03;;;;;;;;;;;18.20;92.30;;;;;;5051626;28;19912;-69
2021/08/11 06:26:29;;;;;;;;;;;18.20;92.30;;;;;;5051336;28;19965;-69
2021/08/11 06:28:54;;;;;;;;;;;18.10;92.40;;;;;;5051249;28;20299;-69
2021/08/11 06:31:23;;;;;;;;;;;18.20;92.50;;;;;;5051001;28;20119;-69
2021/08/11 06:33:48;;;;;;;;;;;18.30;92.40;;;;;;5051942;28;19909;-69
2021/08/11 06:36:14;;;;;;;;;;;18.40;92.50;;;;;;5050814;28;19904;-69
2021/08/11 06:38:40;;;;;;;;;;;18.60;92.40;;;;;;5052592;28;19912;-69
2021/08/11 06:41:05;;;;;;;;;;;18.60;92.30;;;;;;5052099;28;19912;-69
2021/08/11 06:43:31;;;;;;;;;;;18.60;92.30;;;;;;5051567;28;19995;-69
2021/08/11 06:45:56;;;;;;;;;;;18.60;92.40;;;;;;5050475;28;20298;-69
2021/08/11 06:48:22;;;;;;;;;;;18.70;92.40;;;;;;5052150;28;19948;-73
2021/08/11 06:50:47;;;;;;;;;;;18.70;92.40;;;;;;5050934;28;19916;-72
2021/08/11 06:53:13;;;;;;;;;;;18.80;92.30;;;;;;5052258;28;20374;-72
2021/08/11 06:55:38;;;;;;;;;;;18.90;92.30;;;;;;5050326;28;19921;-76
2021/08/11 06:58:04;;;;;;;;;;;18.90;92.40;;;;;;5052104;28;19908;-76
2021/08/11 07:00:29;;;;;;;;;;;19.00;92.30;;;;;;5051180;28;19908;-76
2021/08/11 07:02:54;;;;;;;;;;;19.10;92.10;;;;;;5051049;28;19915;-76
2021/08/11 07:05:20;;;;;;;;;;;19.20;92.00;;;;;;5049773;28;20363;-76
2021/08/11 07:07:45;;;;;;;;;;;19.20;91.80;;;;;;5052129;28;20003;-76
2021/08/11 07:10:11;;;;;;;;;;;19.20;92.00;;;;;;5052024;28;19909;-76
2021/08/11 07:12:37;;;;;;;;;;;19.10;91.80;;;;;;5049932;28;19974;-76
2021/08/11 07:15:04;;;;;;;;;;;19.10;91.90;;;;;;5049791;28;19913;-76
2021/08/11 07:17:29;;;;;;;;;;;19.10;91.90;;;;;;5050564;28;19947;-76
2021/08/11 07:19:55;;;;;;;;;;;19.10;91.90;;;;;;5051737;28;19952;-76
2021/08/11 07:22:22;;;;;;;;;;;19.10;91.90;;;;;;5050099;28;20007;-76
2021/08/11 07:24:48;;;;;;;;;;;19.20;91.90;;;;;;5050558;28;19909;-77
2021/08/11 07:27:13;;;;;;;;;;;19.30;91.90;;;;;;5051194;28;20311;-76
2021/08/11 07:29:39;;;;;;;;;;;19.30;91.80;;;;;;5051574;28;19991;-76
2021/08/11 07:32:04;;;;;;;;;;;19.40;91.60;;;;;;5048469;28;19913;-76
2021/08/11 07:34:30;;;;;;;;;;;19.40;91.60;;;;;;5050348;28;19916;-76
2021/08/11 07:36:55;;;;;;;;;;;19.40;91.70;;;;;;5050539;28;19904;-76
2021/08/11 07:39:20;;;;;;;;;;;19.50;91.70;;;;;;5049413;28;19915;-76
2021/08/11 07:41:46;;;;;;;;;;;19.60;91.60;;;;;;5050960;28;19904;-76
2021/08/11 07:44:11;;;;;;;;;;;19.60;91.50;;;;;;5049710;28;20380;-76
2021/08/11 07:46:37;;;;;;;;;;;19.60;91.40;;;;;;5049817;28;19916;-76
2021/08/11 07:49:02;;;;;;;;;;;19.60;91.40;;;;;;5051078;28;19912;-69
2021/08/11 07:51:28;;;;;;;;;;;19.60;91.50;;;;;;5049495;28;20295;-69
2021/08/11 07:53:54;;;;;;;;;;;19.60;91.50;;;;;;5049259;28;19963;-69
2021/08/11 07:56:19;;;;;;;;;;;19.60;91.50;;;;;;5050319;28;19927;-70
2021/08/11 07:58:45;;;;;;;;;;;19.70;91.60;;;;;;5049414;28;20337;-69
2021/08/11 08:01:10;;;;;;;;;;;19.90;91.60;;;;;;5049139;28;19963;-70
2021/08/11 08:03:36;;;;;;;;;;;19.90;91.50;;;;;;5049104;28;19916;-69
2021/08/11 08:06:01;;;;;;;;;;;20.10;91.40;;;;;;5049327;28;19909;-70
2021/08/11 08:08:26;;;;;;;;;;;20.20;91.20;;;;;;5050615;28;19934;-69
2021/08/11 08:10:52;;;;;;;;;;;20.30;91.10;;;;;;5050787;28;19959;-73
2021/08/11 08:13:20;;;;;;;;;;;20.50;91.10;;;;;;5050422;28;19959;-73
2021/08/11 08:15:47;;;;;;;;;;;20.60;91.00;;;;;;5048615;28;19915;-73
2021/08/11 08:18:12;;;;;;;;;;;20.80;90.60;;;;;;5050130;28;19971;-73
2021/08/11 08:20:37;;;;;;;;;;;21.00;90.70;;;;;;5049889;28;19912;-73
2021/08/11 08:23:03;;;;;;;;;;;21.10;90.40;;;;;;5049757;28;19904;-73
2021/08/11 08:25:28;;;;;;;;;;;21.30;90.30;;;;;;5048581;28;19916;-74
2021/08/11 08:27:54;;;;;;;;;;;21.20;89.20;;;;;;5049510;28;19904;-73
2021/08/11 08:30:19;;;;;;;;;;;21.20;89.70;;;;;;5048900;28;20257;-74
2021/08/11 08:32:45;;;;;;;;;;;21.10;89.30;;;;;;5046779;28;19935;-74
2021/08/11 08:35:11;;;;;;;;;;;21.10;89.50;;;;;;5047688;28;19912;-73
2021/08/11 08:37:37;;;;;;;;;;;21.20;89.20;;;;;;5046982;28;19912;-74
2021/08/11 08:40:10;;;;;;;;;;;21.20;89.10;;;;;;5049520;28;19920;-74
2021/08/11 08:42:36;;;;;;;;;;;21.30;89.10;;;;;;5047464;28;19916;-74
2021/08/11 08:45:01;;;;;;;;;;;21.30;89.50;;;;;;5048516;28;20276;-74
2021/08/11 08:47:28;;;;;;;;;;;21.30;88.00;;;;;;5048153;28;20070;-73
2021/08/11 08:49:53;;;;;;;;;;;21.20;88.60;;;;;;5049077;28;19912;-73
2021/08/11 08:52:19;;;;;;;;;;;21.20;88.70;;;;;;5047826;28;20283;-73
2021/08/11 08:54:46;;;;;;;;;;;21.30;88.70;;;;;;5047975;28;20078;-72
2021/08/11 08:57:12;;;;;;;;;;;21.30;88.30;;;;;;5048197;28;19905;-73
2021/08/11 08:59:42;;;;;;;;;;;21.20;88.50;;;;;;5049395;28;19909;-72
2021/08/11 09:02:08;;;;;;;;;;;21.30;88.30;;;;;;5047971;28;19908;-72
2021/08/11 09:04:34;;;;;;;;;;;21.20;88.10;;;;;;5048216;28;20027;-72
2021/08/11 09:06:59;;;;;;;;;;;21.20;87.90;;;;;;5048714;28;19904;-72
2021/08/11 09:09:32;;;;;;;;;;;21.40;88.10;;;;;;5048967;28;19955;-72
2021/08/11 09:12:07;;;;;;;;;;;21.40;87.50;;;;;;5047326;28;19916;-72
2021/08/11 09:14:32;;;;;;;;;;;21.50;87.30;;;;;;5046591;28;20203;-72
2021/08/11 09:17:00;;;;;;;;;;;21.50;87.80;;;;;;5049092;28;20355;-73
2021/08/11 09:19:36;;;;;;;;;;;21.60;87.50;;;;;;5013369;28;1006181;-73
2021/08/11 09:22:04;;;;;;;;;;;21.70;86.80;;;;;;5048609;28;19908;-73
2021/08/11 09:24:35;;;;;;;;;;;21.60;86.50;;;;;;5048352;28;19909;-72
2021/08/11 09:27:19;;;;;;;;;;;21.70;86.40;;;;;;5049909;28;19909;-72
2021/08/11 09:30:05;;;;;;;;;;;21.80;86.40;;;;;;5049660;28;20114;-73
2021/08/11 09:32:31;;;;;;;;;;;22.00;85.30;;;;;;5049282;28;19954;-74
2021/08/11 09:34:56;;;;;;;;;;;22.10;84.20;;;;;;5047909;28;20318;-74
2021/08/11 09:37:38;;;;;;;;;;;22.00;83.90;;;;;;5049622;28;19905;-74
2021/08/11 09:40:17;;;;;;;;;;;21.90;84.60;;;;;;5049929;28;19915;-73
2021/08/11 09:42:43;;;;;;;;;;;21.90;84.50;;;;;;5052225;28;19920;-74
2021/08/11 09:45:09;;;;;;;;;;;22.00;84.30;;;;;;5052042;28;19904;-74
2021/08/11 09:47:35;;;;;;;;;;;22.10;83.60;;;;;;5052204;28;19966;-73
2021/08/11 09:50:01;;;;;;;;;;;22.10;83.00;;;;;;5053400;28;19909;-73
2021/08/11 09:52:29;;;;;;;;;;;22.10;83.90;;;;;;5051781;28;19915;-72
2021/08/11 09:54:59;;;;;;;;;;;22.20;82.50;;;;;;5051728;28;19916;-72
2021/08/11 09:57:27;;;;;;;;;;;22.20;79.90;;;;;;5059499;28;19948;-73
2021/08/11 09:59:56;;;;;;;;;;;22.10;81.70;;;;;;5052534;28;19915;-72
2021/08/11 10:02:22;;;;;;;;;;;22.20;81.50;;;;;;5052411;28;19917;-73
2021/08/11 10:04:48;;;;;;;;;;;22.30;81.10;;;;;;5051961;28;19955;-72
2021/08/11 10:07:13;;;;;;;;;;;22.40;80.60;;;;;;5051625;28;19909;-72
2021/08/11 10:09:39;;;;;;;;;;;22.50;81.70;;;;;;5052625;28;19905;-72
2021/08/11 10:12:05;;;;;;;;;;;22.60;81.00;;;;;;5053065;28;19912;-72
2021/08/11 10:14:34;;;;;;;;;;;22.80;79.50;;;;;;5050340;28;19920;-72
2021/08/11 10:17:00;;;;;;;;;;;22.70;78.00;;;;;;5059890;28;19962;-72
2021/08/11 10:19:29;;;;;;;;;;;22.50;76.90;;;;;;5052109;28;19913;-78
2021/08/11 10:22:02;;;;;;;;;;;22.50;78.40;;;;;;5052816;28;20287;-72
2021/08/11 10:24:28;;;;;;;;;;;22.60;79.10;;;;;;5051419;28;19912;-72
2021/08/11 10:26:54;;;;;;;;;;;22.90;79.10;;;;;;5053071;28;19980;-73
2021/08/11 10:29:20;;;;;;;;;;;23.00;78.20;;;;;;5058950;28;20319;-74
2021/08/11 10:31:46;;;;;;;;;;;23.00;76.30;;;;;;5053106;28;20338;-73
2021/08/11 10:34:12;;;;;;;;;;;22.90;75.70;;;;;;5058180;28;19913;-74
2021/08/11 10:36:41;;;;;;;;;;;22.90;76.30;;;;;;5052797;28;19905;-73
2021/08/11 10:39:06;;;;;;;;;;;23.00;76.40;;;;;;5059029;28;20011;-73
2021/08/11 10:41:33;;;;;;;;;;;23.00;76.40;;;;;;5052340;28;20003;-73
2021/08/11 10:43:59;;;;;;;;;;;23.00;74.60;;;;;;5050816;28;19960;-73
2021/08/11 10:46:38;;;;;;;;;;;22.80;74.90;;;;;;5051683;28;19908;-74
2021/08/11 10:49:04;;;;;;;;;;;22.60;74.80;;;;;;5051662;28;19909;-76
2021/08/11 10:51:37;;;;;;;;;;;22.70;76.40;;;;;;5052043;28;20042;-78
2021/08/11 10:54:03;;;;;;;;;;;22.90;74.80;;;;;;5049559;28;19917;-77
2021/08/11 10:56:47;;;;;;;;;;;23.00;72.90;;;;;;5052001;28;19990;-77
2021/08/11 10:59:21;;;;;;;;;;;22.90;74.20;;;;;;5051121;28;19917;-77
2021/08/11 11:01:57;;;;;;;;;;;23.10;75.00;;;;;;5059011;28;20283;-72
2021/08/11 11:04:37;;;;;;;;;;;22.90;72.70;;;;;;5057746;28;19959;-70
2021/08/11 11:07:09;;;;;;;;;;;22.80;73.10;;;;;;5051995;28;20295;-70
2021/08/11 11:09:35;;;;;;;;;;;22.90;74.60;;;;;;5049309;28;19912;-77
2021/08/11 11:12:16;;;;;;;;;;;23.10;74.10;;;;;;5051665;28;19908;-77
2021/08/11 11:14:51;;;;;;;;;;;23.30;72.60;;;;;;5050039;28;20007;-77
2021/08/11 11:17:20;;;;;;;;;;;23.10;71.70;;;;;;5051538;28;20290;-74
2021/08/11 11:22:36;;;;;;;;;;;23.10;71.50;;;;;;5051307;28;19909;-76
2021/08/11 11:25:14;;;;;;;;;;;23.30;72.40;;;;;;5048965;28;19916;-76
2021/08/11 11:27:42;;;;;;;;;;;23.40;72.00;;;;;;5051190;28;20330;-77
2021/08/11 11:30:13;;;;;;;;;;;23.80;72.00;;;;;;5058351;28;19905;-78
2021/08/11 11:32:38;;;;;;;;;;;23.90;70.60;;;;;;5049907;28;20422;-70
2021/08/11 11:35:13;;;;;;;;;;;24.20;71.20;;;;;;5050214;28;19964;-70
2021/08/11 11:37:38;;;;;;;;;;;24.30;70.90;;;;;;5051282;28;19911;-70
2021/08/11 11:40:05;;;;;;;;;;;24.20;68.80;;;;;;5051149;28;19991;-70
2021/08/11 11:42:30;;;;;;;;;;;24.10;68.40;;;;;;5049219;28;19909;-70
2021/08/11 11:44:59;;;;;;;;;;;23.90;68.00;;;;;;5050176;28;19912;-70
2021/08/11 11:47:37;;;;;;;;;;;23.70;67.80;;;;;;5057477;28;19912;-77
2021/08/11 11:50:18;;;;;;;;;;;23.60;68.70;;;;;;5051071;28;20391;-70
2021/08/11 11:52:50;;;;;;;;;;;23.70;68.70;;;;;;5056976;28;20306;-70
2021/08/11 11:55:28;;;;;;;;;;;23.80;67.70;;;;;;5048616;28;19916;-74
2021/08/11 11:57:54;;;;;;;;;;;23.90;67.80;;;;;;5050699;28;19916;-74
2021/08/11 12:00:19;;;;;;;;;;;23.90;68.00;;;;;;5050025;28;19905;-74
2021/08/11 12:02:49;;;;;;;;;;;24.10;67.80;;;;;;5049930;28;20240;-75
2021/08/11 12:05:14;;;;;;;;;;;24.10;66.50;;;;;;5048397;28;19948;-74
2021/08/11 12:07:39;;;;;;;;;;;23.90;63.90;;;;;;5050867;28;19971;-75
2021/08/11 12:10:05;;;;;;;;;;;23.80;65.50;;;;;;5050673;28;19956;-69
2021/08/11 12:12:31;;;;;;;;;;;23.70;66.00;;;;;;5048208;28;20003;-69
2021/08/11 12:15:15;;;;;;;;;;;23.70;65.20;;;;;;5049706;28;19921;-70
2021/08/11 12:17:41;;;;;;;;;;;23.60;64.90;;;;;;5050007;28;19908;-74
2021/08/11 12:20:23;;;;;;;;;;;23.60;66.10;;;;;;5050659;28;19905;-77
2021/08/11 12:22:49;;;;;;;;;;;23.70;66.10;;;;;;5049143;28;20006;-77
2021/08/11 12:25:21;;;;;;;;;;;23.70;65.20;;;;;;5048547;28;19987;-72
2021/08/11 12:28:07;;;;;;;;;;;23.70;64.30;;;;;;5050644;28;19905;-72
2021/08/11 12:30:32;;;;;;;;;;;23.60;65.20;;;;;;5049812;28;19904;-72
2021/08/11 12:32:58;;;;;;;;;;;23.50;64.50;;;;;;5050457;28;20008;-72
2021/08/11 12:35:23;;;;;;;;;;;23.50;65.00;;;;;;5048894;28;19917;-72
2021/08/11 12:37:49;;;;;;;;;;;23.60;65.80;;;;;;5050527;28;20363;-72
2021/08/11 12:40:26;;;;;;;;;;;23.80;64.50;;;;;;5050144;28;19905;-72
2021/08/11 12:42:55;;;;;;;;;;;23.90;65.20;;;;;;5050002;28;19905;-72
2021/08/11 12:45:20;;;;;;;;;;;23.90;63.90;;;;;;5056357;28;19934;-72
2021/08/11 12:47:46;;;;;;;;;;;23.90;63.60;;;;;;5050234;28;19909;-72
2021/08/11 12:50:15;;;;;;;;;;;24.00;63.20;;;;;;5049922;28;20003;-72
2021/08/11 12:52:50;;;;;;;;;;;24.10;64.50;;;;;;5049779;28;20055;-72
2021/08/11 12:55:29;;;;;;;;;;;24.40;63.10;;;;;;5048754;28;20015;-72
2021/08/11 12:57:54;;;;;;;;;;;24.40;60.90;;;;;;5050162;28;19955;-72
2021/08/11 13:00:37;;;;;;;;;;;24.10;61.30;;;;;;5050031;28;20433;-71
2021/08/11 13:03:02;;;;;;;;;;;23.90;62.50;;;;;;5050008;28;19909;-72
2021/08/11 13:05:27;;;;;;;;;;;23.80;62.40;;;;;;5048992;28;19916;-72
2021/08/11 13:07:54;;;;;;;;;;;23.90;62.60;;;;;;5049711;28;19912;-72
2021/08/11 13:10:20;;;;;;;;;;;24.10;63.30;;;;;;5056143;28;20283;-72
2021/08/11 13:12:46;;;;;;;;;;;24.30;62.70;;;;;;5049982;28;19905;-72
2021/08/11 13:15:28;;;;;;;;;;;24.40;63.30;;;;;;5048603;28;19917;-77
2021/08/11 13:18:00;;;;;;;;;;;24.70;62.80;;;;;;5052934;28;19917;-77
2021/08/11 13:20:29;;;;;;;;;;;24.70;62.00;;;;;;5053955;28;19911;-77
2021/08/11 13:22:56;;;;;;;;;;;24.80;63.10;;;;;;5053267;28;20401;-77
2021/08/11 13:25:22;;;;;;;;;;;24.90;62.10;;;;;;5059694;28;19926;-77
2021/08/11 13:27:49;;;;;;;;;;;24.90;61.50;;;;;;5053451;28;20281;-75
2021/08/11 13:30:15;;;;;;;;;;;24.90;62.30;;;;;;5053682;28;20287;-74
2021/08/11 13:32:40;;;;;;;;;;;24.90;60.60;;;;;;5053509;28;19991;-74
2021/08/11 13:35:06;;;;;;;;;;;24.80;60.20;;;;;;5051653;28;20021;-77
2021/08/11 13:37:32;;;;;;;;;;;24.70;60.10;;;;;;5053107;28;19908;-77
2021/08/11 13:39:58;;;;;;;;;;;24.70;59.80;;;;;;5052823;28;20490;-77
2021/08/11 13:42:23;;;;;;;;;;;24.70;60.20;;;;;;5053161;28;19908;-78
2021/08/11 13:44:50;;;;;;;;;;;24.70;60.00;;;;;;5050867;28;19909;-77
2021/08/11 13:47:16;;;;;;;;;;;24.70;59.90;;;;;;5053149;28;19959;-72
2021/08/11 13:49:42;;;;;;;;;;;24.70;59.30;;;;;;5053469;28;20395;-72
2021/08/11 13:52:07;;;;;;;;;;;24.70;60.20;;;;;;5053274;28;20061;-72
2021/08/11 13:54:33;;;;;;;;;;;24.50;59.20;;;;;;5052205;28;19959;-72
2021/08/11 13:56:58;;;;;;;;;;;24.50;60.50;;;;;;5052528;28;19905;-72
2021/08/11 13:59:24;;;;;;;;;;;24.60;60.70;;;;;;5052920;28;19966;-72